Time;durP1;ratioP1;P1;durP2;ratioP2;P2;SDS_P1;SDS_P2;PMS_P1;PMS_P2;Temp;Humidity;BMP_temperature;BMP_pressure;BME280_temperature;BME280_humidity;BME280_pressure;Samples;Min_cycle;Max_cycle;Signal;HPM_P1;HPM_P2
2020/12/26 00:00:26;;;;;;;0.43;0.23;;;2.80;82.50;;;;;;4979987;28;20035;-84
2020/12/26 00:02:52;;;;;;;2.40;1.17;;;2.80;82.50;;;;;;4989274;28;20038;-84
2020/12/26 00:05:19;;;;;;;1.73;0.80;;;2.80;82.60;;;;;;4998013;28;20038;-83
2020/12/26 00:07:45;;;;;;;0.30;0.30;;;2.80;82.60;;;;;;4999502;28;20322;-85
2020/12/26 00:10:11;;;;;;;1.10;0.63;;;2.80;82.60;;;;;;4999695;28;20434;-83
2020/12/26 00:12:38;;;;;;;4.77;1.40;;;2.80;82.60;;;;;;4999559;28;20030;-86
2020/12/26 00:15:04;;;;;;;5.00;1.53;;;2.80;82.70;;;;;;4998970;28;20034;-85
2020/12/26 00:17:30;;;;;;;1.43;0.50;;;2.70;82.70;;;;;;5000386;28;20034;-86
2020/12/26 00:19:57;;;;;;;1.20;0.60;;;2.70;82.70;;;;;;5000935;28;20030;-86
2020/12/26 00:22:29;;;;;;;1.33;0.67;;;2.70;82.80;;;;;;5014789;28;20039;-91
2020/12/26 00:24:56;;;;;;;0.47;0.47;;;2.70;82.90;;;;;;5011905;28;20046;-90
2020/12/26 00:27:22;;;;;;;0.00;0.00;;;2.70;82.90;;;;;;5011067;28;20057;-84
2020/12/26 00:29:49;;;;;;;1.13;0.30;;;2.70;82.90;;;;;;5008709;28;20045;-93
2020/12/26 00:32:15;;;;;;;0.20;0.10;;;2.60;82.90;;;;;;5007088;28;20031;-89
2020/12/26 00:34:41;;;;;;;0.00;0.00;;;2.60;83.10;;;;;;5010395;28;20033;-89
2020/12/26 00:37:08;;;;;;;0.27;0.20;;;2.60;83.10;;;;;;5010509;28;20033;-93
2020/12/26 00:39:34;;;;;;;0.97;0.37;;;2.50;83.10;;;;;;5009157;28;20026;-92
2020/12/26 00:42:01;;;;;;;0.13;0.00;;;2.50;83.20;;;;;;5004031;28;20061;-86
2020/12/26 00:44:27;;;;;;;0.37;0.17;;;2.50;83.20;;;;;;5003440;28;20429;-87
2020/12/26 00:46:54;;;;;;;0.27;0.13;;;2.50;83.30;;;;;;4985106;28;20034;-86
2020/12/26 00:49:20;;;;;;;0.20;0.10;;;2.40;83.40;;;;;;5002250;28;20037;-84
2020/12/26 00:51:48;;;;;;;0.40;0.40;;;2.40;83.40;;;;;;5004104;28;20033;-92
2020/12/26 00:54:14;;;;;;;0.23;0.10;;;2.40;83.50;;;;;;5007579;28;20038;-92
2020/12/26 00:56:41;;;;;;;0.40;0.10;;;2.40;83.50;;;;;;4992536;28;20052;-91
2020/12/26 00:59:07;;;;;;;0.50;0.30;;;2.40;83.40;;;;;;5007527;28;20026;-92
2020/12/26 01:01:33;;;;;;;0.53;0.07;;;2.40;83.40;;;;;;5006794;28;20042;-84
2020/12/26 01:04:00;;;;;;;0.47;0.23;;;2.30;83.30;;;;;;5007839;28;20026;-93
2020/12/26 01:06:26;;;;;;;1.07;0.63;;;2.30;83.30;;;;;;5006234;28;20060;-92
2020/12/26 01:08:52;;;;;;;0.00;0.00;;;2.30;83.30;;;;;;5009147;28;20037;-88
2020/12/26 01:11:19;;;;;;;0.20;0.10;;;2.30;83.30;;;;;;5007520;28;20320;-91
2020/12/26 01:13:45;;;;;;;0.60;0.10;;;2.30;83.30;;;;;;5007174;28;20163;-92
2020/12/26 01:16:15;;;;;;;1.97;0.20;;;2.30;83.30;;;;;;5008471;28;20061;-89
2020/12/26 01:18:41;;;;;;;0.20;0.10;;;2.30;83.30;;;;;;5000444;28;20026;-83
2020/12/26 01:21:07;;;;;;;1.50;0.73;;;2.30;83.30;;;;;;4999627;28;20033;-83
2020/12/26 01:23:34;;;;;;;0.63;0.30;;;2.30;83.30;;;;;;4998047;28;20023;-84
2020/12/26 01:26:01;;;;;;;0.00;0.00;;;2.30;83.30;;;;;;4997651;28;20042;-87
2020/12/26 01:28:27;;;;;;;1.00;0.70;;;2.30;83.40;;;;;;4999316;28;20318;-85
2020/12/26 01:30:54;;;;;;;0.03;0.00;;;2.20;83.40;;;;;;4998599;28;20031;-87
2020/12/26 01:33:20;;;;;;;0.50;0.33;;;2.30;83.50;;;;;;4984845;28;20042;-91
2020/12/26 01:35:46;;;;;;;0.90;0.10;;;2.30;83.50;;;;;;5004408;28;20026;-86
2020/12/26 01:38:13;;;;;;;0.73;0.20;;;2.20;83.50;;;;;;5005312;28;20030;-87
2020/12/26 01:40:39;;;;;;;0.23;0.13;;;2.20;83.50;;;;;;5005285;28;20030;-88
2020/12/26 01:43:06;;;;;;;0.10;0.10;;;2.20;83.50;;;;;;4992007;28;20038;-91
2020/12/26 01:45:32;;;;;;;0.10;0.00;;;2.20;83.50;;;;;;4985105;28;20050;-92
2020/12/26 01:47:58;;;;;;;0.23;0.10;;;2.20;83.60;;;;;;4982454;28;20054;-87
2020/12/26 01:50:24;;;;;;;8.80;0.20;;;2.10;83.60;;;;;;4982207;28;20342;-92
2020/12/26 01:52:51;;;;;;;0.00;0.00;;;2.20;83.70;;;;;;4980918;28;20027;-87
2020/12/26 01:55:17;;;;;;;0.63;0.10;;;2.20;83.70;;;;;;4992369;28;20413;-86
2020/12/26 01:57:51;;;;;;;0.37;0.37;;;2.10;83.60;;;;;;5000435;28;20029;-83
2020/12/26 02:00:18;;;;;;;0.23;0.20;;;2.10;83.70;;;;;;4999394;28;20025;-90
2020/12/26 02:02:45;;;;;;;0.10;0.00;;;2.10;83.70;;;;;;4996786;28;20034;-83
2020/12/26 02:05:11;;;;;;;0.87;0.40;;;2.10;83.70;;;;;;4983038;28;20038;-93
2020/12/26 02:07:38;;;;;;;0.20;0.10;;;2.10;83.80;;;;;;4983989;28;20046;-84
2020/12/26 02:10:05;;;;;;;3.50;0.50;;;2.10;83.80;;;;;;4989234;28;20016;-87
2020/12/26 02:12:31;;;;;;;2.90;0.93;;;2.00;83.70;;;;;;5004037;28;20422;-88
2020/12/26 02:14:58;;;;;;;0.13;0.10;;;2.10;83.80;;;;;;5004412;28;20034;-88
2020/12/26 02:17:25;;;;;;;0.43;0.20;;;2.00;83.80;;;;;;5004177;28;20027;-84
2020/12/26 02:19:52;;;;;;;0.30;0.10;;;2.00;83.80;;;;;;5004951;28;20050;-90
2020/12/26 02:22:18;;;;;;;0.20;0.10;;;2.00;83.80;;;;;;5005560;28;20042;-89
2020/12/26 02:24:44;;;;;;;0.73;0.30;;;2.00;83.80;;;;;;5002981;28;20026;-87
2020/12/26 02:27:11;;;;;;;0.50;0.30;;;2.00;83.90;;;;;;5004843;28;20031;-91
2020/12/26 02:29:37;;;;;;;0.93;0.53;;;2.00;83.90;;;;;;5005547;28;20056;-85
2020/12/26 02:32:03;;;;;;;2.53;0.40;;;1.90;83.90;;;;;;5004403;28;20041;-92
2020/12/26 02:34:30;;;;;;;0.37;0.20;;;1.90;84.00;;;;;;5004843;28;20035;-92
2020/12/26 02:36:56;;;;;;;0.07;0.00;;;1.90;84.10;;;;;;5004968;28;20405;-88
2020/12/26 02:39:22;;;;;;;0.00;0.00;;;1.90;84.10;;;;;;5004210;28;20065;-93
2020/12/26 02:41:49;;;;;;;0.20;0.07;;;1.90;84.10;;;;;;5005577;28;20030;-93
2020/12/26 02:44:15;;;;;;;0.30;0.10;;;1.90;84.00;;;;;;5003004;28;20030;-89
2020/12/26 02:46:41;;;;;;;0.40;0.17;;;1.90;84.10;;;;;;5002799;28;20046;-92
2020/12/26 02:49:08;;;;;;;0.47;0.20;;;1.90;83.90;;;;;;5003043;28;20042;-92
2020/12/26 02:51:34;;;;;;;1.20;0.57;;;1.90;84.60;;;;;;5002762;28;20033;-93
2020/12/26 02:54:02;;;;;;;0.10;0.00;;;1.90;83.90;;;;;;4986430;28;20038;-93
2020/12/26 02:56:29;;;;;;;0.00;0.00;;;1.90;84.00;;;;;;5003053;28;20435;-89
2020/12/26 02:58:55;;;;;;;0.20;0.10;;;1.80;84.00;;;;;;5004046;28;20031;-92
2020/12/26 03:01:21;;;;;;;0.33;0.20;;;1.80;84.10;;;;;;5005413;28;20039;-91
2020/12/26 03:03:48;;;;;;;0.00;0.00;;;1.80;84.10;;;;;;5001204;28;20033;-92
2020/12/26 03:06:14;;;;;;;0.33;0.27;;;1.80;84.20;;;;;;4995975;28;20038;-91
2020/12/26 03:08:40;;;;;;;0.30;0.30;;;1.80;84.10;;;;;;5005159;28;20313;-87
2020/12/26 03:11:07;;;;;;;0.27;0.27;;;1.70;84.10;;;;;;5003045;28;20041;-92
2020/12/26 03:13:33;;;;;;;0.77;0.30;;;1.70;84.20;;;;;;4998876;28;20027;-91
2020/12/26 03:16:01;;;;;;;0.20;0.20;;;1.80;84.20;;;;;;4997866;28;20038;-91
2020/12/26 03:18:27;;;;;;;0.20;0.17;;;1.70;84.10;;;;;;5007739;28;20030;-92
2020/12/26 03:20:53;;;;;;;0.63;0.27;;;1.70;84.10;;;;;;5006800;28;20022;-86
2020/12/26 03:23:20;;;;;;;0.23;0.10;;;1.80;84.10;;;;;;5003468;28;20030;-87
2020/12/26 03:25:46;;;;;;;0.00;0.00;;;1.80;84.20;;;;;;5003708;28;20054;-92
2020/12/26 03:28:12;;;;;;;1.03;0.57;;;1.70;84.10;;;;;;5008047;28;20042;-92
2020/12/26 03:30:39;;;;;;;0.40;0.10;;;1.70;84.10;;;;;;5005646;28;20027;-82
2020/12/26 03:33:05;;;;;;;0.67;0.30;;;1.70;84.10;;;;;;4993675;28;20311;-83
2020/12/26 03:35:31;;;;;;;1.00;0.30;;;1.80;84.10;;;;;;4997056;28;20519;-91
2020/12/26 03:37:58;;;;;;;0.23;0.10;;;1.80;84.00;;;;;;5010015;28;20449;-90
2020/12/26 03:40:24;;;;;;;0.00;0.00;;;1.80;83.90;;;;;;5009119;28;20041;-90
2020/12/26 03:42:50;;;;;;;0.00;0.00;;;1.80;83.80;;;;;;5006185;28;20045;-91
2020/12/26 03:45:17;;;;;;;0.00;0.00;;;1.80;83.90;;;;;;5010058;28;20031;-91
2020/12/26 03:47:43;;;;;;;0.83;0.57;;;1.80;84.00;;;;;;5028327;28;20450;-93
2020/12/26 03:50:09;;;;;;;0.00;0.00;;;1.80;84.00;;;;;;5028334;28;20034;-93
2020/12/26 03:52:35;;;;;;;0.00;0.00;;;1.80;84.00;;;;;;5027639;28;20026;-90
2020/12/26 03:55:02;;;;;;;0.10;0.03;;;1.70;84.00;;;;;;5026726;28;20048;-88
2020/12/26 03:57:28;;;;;;;0.43;0.30;;;1.80;84.10;;;;;;5026077;28;20030;-88
2020/12/26 03:59:54;;;;;;;0.10;0.00;;;1.70;84.00;;;;;;5024458;28;20025;-91
2020/12/26 04:02:21;;;;;;;0.00;0.00;;;1.80;84.10;;;;;;5007604;28;20045;-93
2020/12/26 04:04:47;;;;;;;0.47;0.10;;;1.70;84.10;;;;;;4995575;28;20037;-91
2020/12/26 04:07:13;;;;;;;0.13;0.10;;;1.70;84.10;;;;;;4988053;28;20034;-89
2020/12/26 04:09:40;;;;;;;0.17;0.13;;;1.70;84.10;;;;;;4984405;28;20031;-85
2020/12/26 04:12:06;;;;;;;3.10;0.30;;;1.70;84.00;;;;;;4987372;28;20042;-91
2020/12/26 04:14:33;;;;;;;0.20;0.20;;;1.80;83.90;;;;;;4993090;28;20037;-93
2020/12/26 04:16:59;;;;;;;0.60;0.40;;;1.70;83.90;;;;;;4989991;28;20041;-83
2020/12/26 04:19:26;;;;;;;0.33;0.27;;;1.80;84.00;;;;;;4984085;28;20037;-82
2020/12/26 04:21:53;;;;;;;1.47;0.47;;;1.70;83.90;;;;;;5002476;28;20042;-83
2020/12/26 04:24:19;;;;;;;0.30;0.10;;;1.80;84.00;;;;;;5002342;28;20337;-82
2020/12/26 04:26:45;;;;;;;0.33;0.33;;;1.80;84.00;;;;;;5002638;28;20030;-82
2020/12/26 04:29:12;;;;;;;0.00;0.00;;;1.80;83.90;;;;;;5002708;28;20039;-84
2020/12/26 04:31:38;;;;;;;0.00;0.00;;;1.80;83.80;;;;;;4997682;28;20031;-83
2020/12/26 04:34:04;;;;;;;0.63;0.10;;;1.80;83.80;;;;;;4983393;28;20023;-82
2020/12/26 04:36:31;;;;;;;0.30;0.13;;;1.80;84.50;;;;;;5000019;28;20039;-86
2020/12/26 04:38:57;;;;;;;0.27;0.13;;;1.90;83.80;;;;;;5010353;28;20034;-93
2020/12/26 04:41:23;;;;;;;0.30;0.07;;;1.90;83.80;;;;;;5008579;28;20042;-91
2020/12/26 04:43:50;;;;;;;1.13;0.67;;;1.90;83.70;;;;;;4997172;28;20058;-92
2020/12/26 04:46:24;;;;;;;0.50;0.33;;;2.00;83.60;;;;;;4985766;28;20057;-93
2020/12/26 04:49:01;;;;;;;0.50;0.30;;;2.00;83.50;;;;;;4970753;28;20031;-88
2020/12/26 04:51:28;;;;;;;1.17;0.30;;;2.00;83.30;;;;;;4998275;28;20034;-92
2020/12/26 04:53:54;;;;;;;0.40;0.07;;;2.10;83.30;;;;;;4987829;28;20049;-91
2020/12/26 04:56:20;;;;;;;4.03;0.50;;;2.10;83.20;;;;;;4998138;28;20030;-91
2020/12/26 04:58:48;;;;;;;0.63;0.10;;;2.10;83.20;;;;;;4997635;28;20318;-87
2020/12/26 05:01:15;;;;;;;0.37;0.37;;;2.10;83.30;;;;;;4997632;28;20114;-91
2020/12/26 05:03:42;;;;;;;0.83;0.53;;;2.10;83.30;;;;;;4985547;28;20342;-91
2020/12/26 05:06:08;;;;;;;0.43;0.20;;;2.10;83.30;;;;;;4977855;28;20038;-92
2020/12/26 05:08:35;;;;;;;0.20;0.00;;;2.10;83.30;;;;;;4977784;28;20042;-83
2020/12/26 05:11:01;;;;;;;0.50;0.40;;;2.10;83.30;;;;;;4978025;28;20027;-83
2020/12/26 05:13:27;;;;;;;0.00;0.00;;;2.10;83.30;;;;;;4979856;28;20034;-86
2020/12/26 05:15:54;;;;;;;0.00;0.00;;;2.10;83.20;;;;;;4979265;28;20080;-89
2020/12/26 05:18:21;;;;;;;0.37;0.10;;;2.10;83.20;;;;;;4977915;28;20414;-84
2020/12/26 05:20:47;;;;;;;0.00;0.00;;;2.10;83.30;;;;;;4991612;28;20045;-89
2020/12/26 05:23:18;;;;;;;1.60;0.57;;;2.10;83.30;;;;;;4997162;28;20034;-86
2020/12/26 05:25:48;;;;;;;0.00;0.00;;;2.10;83.30;;;;;;4990973;28;20046;-85
2020/12/26 05:28:20;;;;;;;0.10;0.10;;;2.10;83.20;;;;;;4995534;28;20049;-85
2020/12/26 05:30:49;;;;;;;0.40;0.23;;;2.10;83.20;;;;;;4984261;28;20035;-85
2020/12/26 05:33:16;;;;;;;1.30;0.40;;;2.10;83.20;;;;;;4990467;28;20030;-85
2020/12/26 05:35:51;;;;;;;0.10;0.00;;;2.20;83.20;;;;;;4998789;28;20031;-89
2020/12/26 05:38:18;;;;;;;0.00;0.00;;;2.20;83.10;;;;;;4997849;28;20022;-91
2020/12/26 05:40:50;;;;;;;0.93;0.10;;;2.20;83.00;;;;;;4998184;28;20037;-87
2020/12/26 05:43:18;;;;;;;1.70;0.20;;;2.30;83.00;;;;;;4996915;28;20034;-83
2020/12/26 05:45:45;;;;;;;0.93;0.40;;;2.30;82.90;;;;;;4995696;28;20038;-85
2020/12/26 05:48:12;;;;;;;0.30;0.20;;;2.30;82.80;;;;;;4996089;28;20035;-86
2020/12/26 05:50:40;;;;;;;3.63;0.23;;;2.40;82.80;;;;;;4988970;28;20034;-86
2020/12/26 05:53:07;;;;;;;0.37;0.30;;;2.40;82.70;;;;;;4995946;28;20023;-88
2020/12/26 05:55:44;;;;;;;0.30;0.10;;;2.40;82.60;;;;;;4991165;28;20022;-89
2020/12/26 05:58:14;;;;;;;0.70;0.30;;;2.50;82.60;;;;;;4979242;28;20045;-89
2020/12/26 06:00:51;;;;;;;0.00;0.00;;;2.50;82.60;;;;;;4979644;28;20038;-90
2020/12/26 06:03:33;;;;;;;0.77;0.30;;;2.50;82.50;;;;;;4974212;28;20042;-89
2020/12/26 06:06:04;;;;;;;1.23;0.73;;;2.50;82.50;;;;;;4994936;28;20061;-90
2020/12/26 06:08:34;;;;;;;0.43;0.00;;;2.50;82.50;;;;;;4978728;28;20038;-87
2020/12/26 06:11:04;;;;;;;0.30;0.27;;;2.50;82.50;;;;;;4993807;28;20277;-88
2020/12/26 06:13:38;;;;;;;0.10;0.00;;;2.50;82.40;;;;;;4974612;28;20038;-87
2020/12/26 06:16:10;;;;;;;0.53;0.47;;;2.60;82.40;;;;;;4989802;28;20058;-92
2020/12/26 06:18:41;;;;;;;0.53;0.20;;;2.60;82.40;;;;;;4997768;28;20045;-93
2020/12/26 06:21:08;;;;;;;1.23;0.40;;;2.60;82.40;;;;;;4998951;28;20034;-88
2020/12/26 06:23:38;;;;;;;0.23;0.23;;;2.60;82.40;;;;;;4996484;28;20034;-85
2020/12/26 06:26:05;;;;;;;0.00;0.00;;;2.80;82.30;;;;;;4995586;28;20373;-87
2020/12/26 06:28:33;;;;;;;0.43;0.30;;;2.90;81.70;;;;;;4994843;28;20043;-86
2020/12/26 06:31:08;;;;;;;0.53;0.23;;;2.90;81.60;;;;;;4977521;28;20039;-88
2020/12/26 06:33:42;;;;;;;0.97;0.33;;;2.90;81.80;;;;;;4991543;28;20039;-88
2020/12/26 06:36:09;;;;;;;0.27;0.10;;;2.80;82.10;;;;;;4997593;28;20030;-88
2020/12/26 06:38:36;;;;;;;0.20;0.10;;;2.70;82.30;;;;;;4995541;28;20038;-84
2020/12/26 06:41:03;;;;;;;0.83;0.30;;;2.70;82.50;;;;;;4993923;28;20425;-84
2020/12/26 06:43:50;;;;;;;0.07;0.00;;;2.60;82.70;;;;;;4994480;28;20046;-85
2020/12/26 06:46:16;;;;;;;1.23;0.57;;;2.60;82.90;;;;;;4995280;28;20141;-88
2020/12/26 06:48:46;;;;;;;0.43;0.13;;;2.50;83.00;;;;;;4998098;28;20038;-85
2020/12/26 06:51:24;;;;;;;0.67;0.43;;;2.50;83.00;;;;;;4994705;28;20045;-84
2020/12/26 06:53:51;;;;;;;0.53;0.40;;;2.50;83.20;;;;;;4980745;28;20041;-87
2020/12/26 06:56:33;;;;;;;0.13;0.10;;;2.50;83.20;;;;;;4980152;28;20035;-94
2020/12/26 06:59:11;;;;;;;0.17;0.17;;;2.50;83.20;;;;;;4984867;28;20043;-93
2020/12/26 07:01:38;;;;;;;0.10;0.00;;;2.60;83.10;;;;;;5000372;28;20038;-85
2020/12/26 07:04:10;;;;;;;0.20;0.10;;;2.60;82.90;;;;;;5002341;28;20042;-93
2020/12/26 07:06:55;;;;;;;0.20;0.20;;;2.60;82.80;;;;;;4999947;28;20314;-84
2020/12/26 07:09:37;;;;;;;0.00;0.00;;;2.60;82.70;;;;;;4997711;28;20329;-86
2020/12/26 07:12:07;;;;;;;0.37;0.10;;;2.60;82.70;;;;;;4998649;28;20026;-85
2020/12/26 07:14:33;;;;;;;0.10;0.10;;;2.60;82.70;;;;;;4998715;28;20325;-87
2020/12/26 07:17:20;;;;;;;0.27;0.10;;;2.60;82.70;;;;;;4998206;28;20038;-85
2020/12/26 07:19:49;;;;;;;0.00;0.00;;;2.70;82.70;;;;;;4987804;28;20053;-88
2020/12/26 07:22:21;;;;;;;0.73;0.30;;;2.70;82.70;;;;;;4977226;28;20054;-89
2020/12/26 07:25:08;;;;;;;0.33;0.20;;;2.70;82.60;;;;;;4977385;28;20039;-87
2020/12/26 07:27:39;;;;;;;0.37;0.10;;;2.70;82.50;;;;;;4978602;28;20054;-85
2020/12/26 07:30:11;;;;;;;0.80;0.20;;;2.80;82.50;;;;;;4983172;28;20341;-87
2020/12/26 07:32:37;;;;;;;0.20;0.07;;;2.90;82.30;;;;;;4997358;28;20328;-86
2020/12/26 07:35:17;;;;;;;2.00;0.53;;;2.90;82.20;;;;;;4998188;28;20045;-88
2020/12/26 07:37:44;;;;;;;0.20;0.00;;;3.00;82.10;;;;;;4983699;28;20030;-87
2020/12/26 07:40:37;;;;;;;0.23;0.23;;;3.00;82.00;;;;;;4976960;28;20030;-87
2020/12/26 07:43:05;;;;;;;0.00;0.00;;;3.00;81.90;;;;;;4961499;28;20053;-86
2020/12/26 07:45:32;;;;;;;0.00;0.00;;;3.10;81.90;;;;;;4994140;28;20460;-86
2020/12/26 07:48:00;;;;;;;0.50;0.20;;;3.10;81.80;;;;;;4995453;28;20037;-87
2020/12/26 07:50:28;;;;;;;0.00;0.00;;;3.10;81.70;;;;;;4996107;28;20042;-87
2020/12/26 07:52:56;;;;;;;0.10;0.00;;;3.10;81.70;;;;;;4980128;28;20034;-87
2020/12/26 07:55:23;;;;;;;0.00;0.00;;;3.20;81.80;;;;;;4992172;28;20027;-86
2020/12/26 07:57:49;;;;;;;0.00;0.00;;;3.20;81.70;;;;;;4960810;28;20034;-87
2020/12/26 08:00:23;;;;;;;0.03;0.00;;;3.20;81.60;;;;;;4964655;28;20034;-89
2020/12/26 08:02:54;;;;;;;0.00;0.00;;;3.20;81.70;;;;;;4974920;28;20046;-89
2020/12/26 08:05:21;;;;;;;0.00;0.00;;;3.40;81.40;;;;;;4968790;28;20030;-88
2020/12/26 08:07:48;;;;;;;0.73;0.30;;;3.40;81.20;;;;;;4989380;28;20429;-89
2020/12/26 08:10:18;;;;;;;0.10;0.00;;;3.40;81.20;;;;;;4982537;28;20073;-89
2020/12/26 08:12:52;;;;;;;0.00;0.00;;;3.40;81.20;;;;;;5002603;28;20052;-93
2020/12/26 08:15:20;;;;;;;0.20;0.10;;;3.40;81.40;;;;;;4985717;28;20026;-89
2020/12/26 08:17:47;;;;;;;0.00;0.00;;;3.40;81.50;;;;;;4996198;28;20019;-90
2020/12/26 08:20:15;;;;;;;0.50;0.10;;;3.40;81.60;;;;;;4986706;28;20030;-87
2020/12/26 08:22:43;;;;;;;0.10;0.00;;;3.30;81.60;;;;;;4996309;28;20042;-86
2020/12/26 08:25:10;;;;;;;0.17;0.10;;;3.40;81.70;;;;;;4980350;28;20034;-89
2020/12/26 08:27:38;;;;;;;0.07;0.03;;;3.40;81.70;;;;;;4996614;28;20042;-89
2020/12/26 08:30:19;;;;;;;1.03;0.60;;;3.40;81.60;;;;;;5004504;28;20030;-89
2020/12/26 08:33:15;;;;;;;0.10;0.10;;;3.40;81.60;;;;;;4999609;28;20038;-88
2020/12/26 08:36:05;;;;;;;0.20;0.17;;;3.50;81.60;;;;;;5001612;28;20035;-90
2020/12/26 08:38:56;;;;;;;0.20;0.10;;;3.50;81.50;;;;;;4992107;28;20030;-85
2020/12/26 08:41:22;;;;;;;0.00;0.00;;;3.50;81.60;;;;;;4980291;28;20022;-88
2020/12/26 08:43:49;;;;;;;0.00;0.00;;;3.50;81.50;;;;;;4997346;28;20038;-88
2020/12/26 08:46:23;;;;;;;0.00;0.00;;;3.50;81.50;;;;;;4988414;28;20031;-89
2020/12/26 08:48:50;;;;;;;1.30;0.30;;;3.60;81.40;;;;;;4978657;28;20045;-89
2020/12/26 08:52:04;;;;;;;1.03;0.43;;;3.60;81.40;;;;;;4972673;28;20460;-88
2020/12/26 08:55:11;;;;;;;0.83;0.20;;;3.70;81.40;;;;;;4987527;28;20046;-88
2020/12/26 08:57:43;;;;;;;0.97;0.40;;;4.20;80.50;;;;;;4962670;28;20277;-93
2020/12/26 09:01:02;;;;;;;0.20;0.10;;;4.90;79.00;;;;;;4973200;28;20055;-85
2020/12/26 09:03:50;;;;;;;0.13;0.10;;;5.30;77.80;;;;;;4974865;28;20035;-86
2020/12/26 09:06:42;;;;;;;0.20;0.10;;;5.60;77.20;;;;;;4989313;28;20034;-92
2020/12/26 09:09:16;;;;;;;0.10;0.00;;;5.80;76.80;;;;;;4969926;28;20050;-89
2020/12/26 09:11:45;;;;;;;4.47;0.97;;;5.80;76.60;;;;;;4959457;28;20035;-90
2020/12/26 09:14:18;;;;;;;2.47;1.23;;;5.60;77.10;;;;;;4976205;28;20030;-87
2020/12/26 09:16:45;;;;;;;0.93;0.43;;;5.20;78.30;;;;;;4957914;28;20042;-88
2020/12/26 09:19:12;;;;;;;0.57;0.33;;;4.90;79.30;;;;;;4959478;28;20035;-91
2020/12/26 09:21:38;;;;;;;2.77;1.50;;;4.80;79.90;;;;;;4977038;28;20027;-89
2020/12/26 09:24:18;;;;;;;0.43;0.23;;;4.70;80.30;;;;;;4960243;28;20070;-90
2020/12/26 09:26:45;;;;;;;0.77;0.37;;;4.70;80.60;;;;;;4944140;28;20053;-91
2020/12/26 09:29:21;;;;;;;0.60;0.33;;;4.60;80.60;;;;;;4969413;28;20045;-86
2020/12/26 09:31:47;;;;;;;1.33;0.40;;;4.60;80.80;;;;;;4978735;28;20038;-90
2020/12/26 09:34:17;;;;;;;0.40;0.20;;;4.60;80.80;;;;;;4995218;28;20038;-90
2020/12/26 09:36:44;;;;;;;0.57;0.30;;;4.60;80.80;;;;;;4995232;28;20053;-86
2020/12/26 09:39:10;;;;;;;2.70;0.50;;;4.60;80.70;;;;;;4995490;28;20049;-91
2020/12/26 09:41:44;;;;;;;0.47;0.20;;;4.60;80.80;;;;;;4995327;28;20034;-92
2020/12/26 09:44:11;;;;;;;1.23;0.40;;;4.60;80.90;;;;;;4995692;28;20024;-90
2020/12/26 09:46:38;;;;;;;0.30;0.13;;;4.50;81.00;;;;;;4998682;28;20452;-92
2020/12/26 09:49:05;;;;;;;0.53;0.23;;;4.50;81.00;;;;;;4996152;28;20029;-91
2020/12/26 09:51:31;;;;;;;1.43;0.50;;;4.50;81.00;;;;;;4996119;28;20030;-92
2020/12/26 09:53:58;;;;;;;0.77;0.30;;;4.50;80.90;;;;;;4996559;28;20029;-84
2020/12/26 09:56:26;;;;;;;0.50;0.40;;;4.50;81.10;;;;;;4963352;28;20118;-91
2020/12/26 09:58:52;;;;;;;0.80;0.20;;;4.50;81.10;;;;;;4995588;28;20031;-89
2020/12/26 10:01:21;;;;;;;0.07;0.00;;;4.60;81.00;;;;;;4994576;28;20027;-90
2020/12/26 10:03:48;;;;;;;0.23;0.10;;;4.70;80.90;;;;;;4996238;28;20033;-91
2020/12/26 10:06:18;;;;;;;1.37;0.80;;;4.70;80.70;;;;;;4982714;28;20049;-84
2020/12/26 10:08:45;;;;;;;0.35;0.30;;;4.70;80.60;;;;;;5008500;28;20421;-90
2020/12/26 10:18:15;;;;;;;0.87;0.73;;;6.00;78.00;;;;;;5034793;28;20279;-92
2020/12/26 10:21:08;;;;;;;2.23;0.77;;;6.30;77.30;;;;;;5021229;28;20026;-87
2020/12/26 10:23:42;;;;;;;0.52;0.15;;;6.30;77.20;;;;;;5024062;28;20030;-91
2020/12/26 10:26:08;;;;;;;0.63;0.53;;;6.50;77.50;;;;;;5019290;28;20034;-91
2020/12/26 10:28:44;;;;;;;1.47;0.37;;;6.70;77.10;;;;;;5028840;28;20049;-89
2020/12/26 10:31:11;;;;;;;0.63;0.20;;;6.90;76.90;;;;;;5045700;28;20030;-90
2020/12/26 10:33:39;;;;;;;0.83;0.13;;;7.10;76.60;;;;;;5010505;28;20038;-90
2020/12/26 10:36:05;;;;;;;0.40;0.20;;;7.20;76.40;;;;;;5027343;28;20675;-92
2020/12/26 10:38:32;;;;;;;2.77;0.20;;;7.40;77.00;;;;;;5025018;28;20344;-94
2020/12/26 10:40:58;;;;;;;1.70;0.43;;;7.50;76.00;;;;;;5040510;28;20029;-91
2020/12/26 10:43:24;;;;;;;0.40;0.30;;;7.50;76.10;;;;;;5043588;28;20044;-95
2020/12/26 10:45:51;;;;;;;0.50;0.23;;;7.60;76.30;;;;;;5031732;28;20041;-91
2020/12/26 10:48:17;;;;;;;1.37;0.53;;;7.60;76.30;;;;;;5001152;28;20037;-90
2020/12/26 10:50:43;;;;;;;0.53;0.53;;;7.70;76.40;;;;;;5002360;28;20478;-92
2020/12/26 10:53:10;;;;;;;1.37;0.37;;;7.80;76.30;;;;;;4984415;28;20042;-92
2020/12/26 10:55:36;;;;;;;0.47;0.30;;;7.90;76.70;;;;;;4988475;28;20105;-91
2020/12/26 10:58:03;;;;;;;2.60;0.97;;;7.90;76.50;;;;;;5002630;28;20042;-92
2020/12/26 11:00:29;;;;;;;3.40;1.10;;;7.90;76.60;;;;;;5014734;28;20038;-91
2020/12/26 11:02:55;;;;;;;4.60;3.47;;;8.10;76.30;;;;;;5002300;28;20049;-92
2020/12/26 11:05:22;;;;;;;16.57;6.90;;;8.10;76.10;;;;;;4968122;28;20047;-93
2020/12/26 11:07:49;;;;;;;10.50;3.97;;;8.30;76.20;;;;;;5021851;28;20524;-93
2020/12/26 11:10:17;;;;;;;4.10;1.53;;;8.30;76.10;;;;;;5011857;28;20053;-88
2020/12/26 11:13:04;;;;;;;0.70;0.47;;;8.40;76.30;;;;;;5020454;28;20041;-85
2020/12/26 11:16:04;;;;;;;2.20;1.27;;;8.30;76.20;;;;;;5035915;28;20045;-88
2020/12/26 11:18:46;;;;;;;0.53;0.33;;;8.50;76.20;;;;;;5038578;28;20022;-87
2020/12/26 11:21:23;;;;;;;4.82;2.13;;;8.60;75.90;;;;;;5009055;28;20429;-91
2020/12/26 11:23:52;;;;;;;31.57;8.80;;;8.80;75.50;;;;;;5004032;28;20033;-90
2020/12/26 11:26:18;;;;;;;3.47;1.00;;;9.00;75.00;;;;;;5011845;28;20050;-92
2020/12/26 11:28:44;;;;;;;1.37;1.20;;;9.30;74.40;;;;;;5033616;28;20030;-91
2020/12/26 11:31:11;;;;;;;3.53;1.27;;;9.50;74.10;;;;;;5010412;28;20044;-95
2020/12/26 11:33:37;;;;;;;0.43;0.20;;;9.50;74.00;;;;;;5012798;28;20045;-93
2020/12/26 11:36:03;;;;;;;1.13;0.28;;;9.50;74.10;;;;;;5013664;28;20034;-92
2020/12/26 11:38:30;;;;;;;0.95;0.40;;;9.50;74.20;;;;;;4995586;28;20043;-94
2020/12/26 11:40:56;;;;;;;3.78;1.83;;;9.40;74.70;;;;;;5016179;28;20050;-92
2020/12/26 11:43:22;;;;;;;4.03;1.73;;;9.30;75.10;;;;;;5004179;28;20034;-95
2020/12/26 11:45:49;;;;;;;2.70;0.52;;;9.30;75.20;;;;;;5028665;28;20045;-94
2020/12/26 11:48:15;;;;;;;0.40;0.20;;;9.40;75.10;;;;;;5031272;28;20037;-92
2020/12/26 11:50:44;;;;;;;1.23;0.32;;;9.50;74.90;;;;;;5034858;28;20022;-89
2020/12/26 11:53:15;;;;;;;0.10;0.10;;;9.70;74.60;;;;;;5032403;28;20026;-90
2020/12/26 11:55:41;;;;;;;1.42;0.77;;;9.70;74.40;;;;;;5023301;28;20030;-92
2020/12/26 11:58:07;;;;;;;2.50;0.95;;;9.60;74.70;;;;;;5026556;28;20413;-93
2020/12/26 12:00:34;;;;;;;7.50;2.05;;;9.50;75.20;;;;;;5004716;28;20035;-94
2020/12/26 12:03:00;;;;;;;6.22;1.25;;;9.30;75.70;;;;;;4986362;28;20030;-92
2020/12/26 12:05:26;;;;;;;3.90;0.85;;;9.40;75.90;;;;;;4991831;28;20034;-95
2020/12/26 12:07:53;;;;;;;1.45;0.70;;;9.50;75.40;;;;;;5000799;28;20046;-94
2020/12/26 12:10:19;;;;;;;0.52;0.17;;;9.60;75.20;;;;;;5010560;28;20136;-92
2020/12/26 12:12:45;;;;;;;1.65;0.22;;;9.70;75.20;;;;;;5003235;28;20030;-94
2020/12/26 12:15:12;;;;;;;8.88;0.30;;;9.80;75.00;;;;;;4998401;28;20027;-91
2020/12/26 12:17:38;;;;;;;0.52;0.10;;;9.70;74.90;;;;;;5002645;28;20026;-88
2020/12/26 12:20:04;;;;;;;0.47;0.20;;;9.70;75.20;;;;;;5002016;28;20034;-89
2020/12/26 12:22:31;;;;;;;0.10;0.00;;;9.70;75.30;;;;;;5004105;28;20030;-91
2020/12/26 12:24:57;;;;;;;1.42;0.32;;;9.70;75.10;;;;;;4997265;28;20143;-87
2020/12/26 12:27:23;;;;;;;0.10;0.10;;;9.70;75.20;;;;;;4984355;28;20046;-91
2020/12/26 12:29:50;;;;;;;0.30;0.10;;;9.70;75.20;;;;;;4978978;28;20018;-89
2020/12/26 12:32:16;;;;;;;0.05;0.00;;;9.70;75.20;;;;;;4991994;28;20034;-85
2020/12/26 12:34:44;;;;;;;0.08;0.08;;;9.80;75.20;;;;;;4997245;28;20034;-87
2020/12/26 12:37:13;;;;;;;0.70;0.22;;;9.70;75.30;;;;;;4996541;28;20038;-86
2020/12/26 12:39:40;;;;;;;1.02;0.20;;;9.70;75.60;;;;;;4998574;28;20034;-86
2020/12/26 12:42:09;;;;;;;0.00;0.00;;;9.70;75.60;;;;;;4980692;28;20034;-93
2020/12/26 12:44:36;;;;;;;0.43;0.10;;;9.90;75.30;;;;;;4993626;28;20027;-87
2020/12/26 12:47:02;;;;;;;0.60;0.10;;;10.20;74.80;;;;;;4995572;28;20041;-92
2020/12/26 12:49:29;;;;;;;0.52;0.30;;;10.30;74.20;;;;;;4996504;28;20045;-88
2020/12/26 12:51:55;;;;;;;0.98;0.22;;;10.20;74.30;;;;;;4995046;28;20049;-87
2020/12/26 12:54:22;;;;;;;0.20;0.00;;;10.10;74.70;;;;;;4996591;28;20034;-85
2020/12/26 12:56:48;;;;;;;0.20;0.05;;;10.10;74.90;;;;;;4996875;28;20034;-91
2020/12/26 12:59:15;;;;;;;0.03;0.00;;;10.10;74.90;;;;;;4996436;28;20030;-91
2020/12/26 13:01:47;;;;;;;0.00;0.00;;;10.10;75.00;;;;;;4996036;28;20421;-87
2020/12/26 13:04:13;;;;;;;0.10;0.05;;;10.20;74.90;;;;;;4980160;28;20434;-90
2020/12/26 13:06:39;;;;;;;0.00;0.00;;;10.30;74.60;;;;;;4996745;28;20418;-85
2020/12/26 13:09:06;;;;;;;0.28;0.20;;;10.40;74.30;;;;;;4996930;28;20030;-90
2020/12/26 13:11:32;;;;;;;0.10;0.10;;;10.50;74.20;;;;;;4995823;28;20030;-86
2020/12/26 13:13:58;;;;;;;0.28;0.05;;;10.40;74.30;;;;;;4995855;28;20486;-93